| time (UTC) | temp F | wind direction | speed knots | gust knots | rain 1hr in | rain 24hr in | rain mn in | humidity % | barometer mb |
| 20260505114017 | 54 | 315 | 6.1 | 10.4 | 0.00 | 0.00 | 0.00 | 71 | 1017.7 |
| 20260505113018 | 54 | 315 | 7.0 | 11.3 | 0.00 | 0.00 | 0.00 | 72 | 1017.8 |
| 20260505112039 | 54 | 248 | 6.1 | 11.3 | 0.00 | 0.00 | 0.00 | 72 | 1017.8 |
| 20260505111040 | 53 | 248 | 7.0 | 10.4 | 0.00 | 0.00 | 0.00 | 71 | 1017.9 |
| 20260505102018 | 52 | 248 | 7.0 | 14.8 | 0.00 | 0.00 | 0.00 | 74 | 1018.1 |
| 20260505101017 | 53 | 248 | 5.2 | 11.3 | 0.00 | 0.00 | 0.00 | 73 | 1018.1 |
| 20260505100017 | 53 | 225 | 6.1 | 12.2 | 0.00 | 0.00 | 0.00 | 76 | 1018.1 |
| 20260505095016 | 53 | 248 | 7.0 | 12.2 | 0.00 | 0.00 | 0.00 | 76 | 1018.1 |
| 20260505094016 | 53 | 248 | 4.3 | 10.4 | 0.00 | 0.00 | 0.00 | 79 | 1018.2 |
| 20260505093016 | 52 | 225 | 5.2 | 9.6 | 0.00 | 0.00 | 0.00 | 80 | 1018.2 |
| 20260505092039 | 52 | 225 | 3.5 | 7.0 | 0.00 | 0.00 | 0.00 | 82 | 1018.2 |
| 20260505091016 | 51 | 225 | 4.3 | 8.7 | 0.00 | 0.00 | 0.00 | 83 | 1018.2 |
| 20260505090016 | 51 | 225 | 4.3 | 8.7 | 0.00 | 0.00 | 0.00 | 83 | 1018.2 |
| 20260505085018 | 51 | 248 | 5.2 | 8.7 | 0.00 | 0.00 | 0.00 | 85 | 1018.2 |
| 20260505084016 | 50 | 248 | 6.1 | 9.6 | 0.00 | 0.00 | 0.00 | 84 | 1018.2 |
| 20260505083101 | 50 | 225 | 4.3 | 9.6 | 0.00 | 0.00 | 0.00 | 85 | 1018.3 |
| 20260505082018 | 50 | 225 | 4.3 | 8.7 | 0.00 | 0.00 | 0.00 | 86 | 1018.3 |
| 20260505081017 | 50 | 203 | 2.6 | 6.1 | 0.00 | 0.00 | 0.00 | 87 | 1018.3 |
| 20260505080016 | 50 | 225 | 3.5 | 7.0 | 0.00 | 0.00 | 0.00 | 88 | 1018.3 |
| 20260505075019 | 49 | 225 | 3.5 | 7.8 | 0.00 | 0.00 | 0.00 | 87 | 1018.3 |
| 20260505074016 | 49 | 225 | 2.6 | 7.0 | 0.00 | 0.00 | 0.00 | 87 | 1018.3 |
| 20260505073038 | 49 | 203 | 1.7 | 7.8 | 0.00 | 0.00 | 0.00 | 89 | 1018.2 |
| 20260505072037 | 49 | 203 | 1.7 | 6.1 | 0.00 | 0.00 | 0.00 | 90 | 1018.2 |
| 20260505071036 | 49 | 203 | 2.6 | 7.8 | 0.00 | 0.00 | 0.00 | 90 | 1018.2 |
| 20260505070016 | 48 | 225 | 3.5 | 8.7 | 0.00 | 0.00 | 0.00 | 91 | 1018.3 |
| 20260505065036 | 47 | 225 | 3.5 | 6.1 | 0.00 | 0.00 | 0.00 | 92 | 1018.2 |
| 20260505064038 | 47 | 225 | 2.6 | 6.1 | 0.00 | 0.00 | 0.00 | 92 | 1018.3 |
| 20260505063016 | 47 | 225 | 2.6 | 7.0 | 0.00 | 0.00 | 0.00 | 93 | 1018.2 |
| 20260505062036 | 47 | 225 | 3.5 | 7.0 | 0.00 | 0.00 | 0.00 | 93 | 1018.2 |
| 20260505061016 | 47 | 225 | 4.3 | 7.8 | 0.00 | 0.00 | 0.00 | 92 | 1018.2 |
| 20260505060016 | 46 | 225 | 4.3 | 7.8 | 0.00 | 0.00 | 0.00 | 92 | 1018.2 |
| 20260505055016 | 46 | 225 | 3.5 | 7.0 | 0.00 | 0.00 | 0.00 | 92 | 1018.2 |
| 20260505054016 | 46 | 225 | 2.6 | 5.2 | 0.00 | 0.00 | 0.00 | 91 | 1018.2 |
| 20260505053016 | 46 | 225 | 4.3 | 7.8 | 0.00 | 0.00 | 0.00 | 91 | 1018.3 |
| 20260505052016 | 46 | 225 | 1.7 | 7.0 | 0.00 | 0.00 | 0.00 | 91 | 1018.2 |
| 20260505051057 | 46 | 0.0 | 2.6 | 0.00 | 0.00 | 0.00 | 91 | 1018.2 | |
| 20260505041016 | 46 | 0.0 | 1.7 | 0.00 | 0.00 | 0.00 | 90 | 1017.9 | |
| 20260505040036 | 46 | 0.0 | 1.7 | 0.00 | 0.00 | 0.00 | 89 | 1017.9 | |
| 20260505035016 | 46 | 0.0 | 0.9 | 0.00 | 0.00 | 0.00 | 89 | 1017.9 | |
| 20260505034016 | 45 | 68 | 0.9 | 1.7 | 0.00 | 0.00 | 0.00 | 89 | 1017.9 |
| 20260505033016 | 45 | 113 | 0.9 | 2.6 | 0.00 | 0.00 | 0.00 | 89 | 1018.0 |
| 20260505032038 | 45 | 158 | 0.9 | 2.6 | 0.00 | 0.00 | 0.00 | 90 | 1018.1 |
| 20260505031016 | 45 | 0 | 0.9 | 3.5 | 0.00 | 0.00 | 0.00 | 90 | 1018.0 |
| 20260505030036 | 45 | 0.0 | 0.0 | 0.00 | 0.00 | 0.00 | 89 | 1018.0 | |
| 20260505025016 | 46 | 0.0 | 1.7 | 0.00 | 0.00 | 0.00 | 88 | 1018.0 | |
| 20260505024016 | 47 | 0.0 | 1.7 | 0.00 | 0.00 | 0.00 | 86 | 1018.1 | |
| 20260505023016 | 47 | 0.0 | 2.6 | 0.00 | 0.00 | 0.00 | 86 | 1018.1 | |
| 20260505022116 | 47 | 225 | 0.9 | 3.5 | 0.00 | 0.00 | 0.00 | 85 | 1018.1 |
| 20260505021016 | 47 | 0.0 | 0.9 | 0.00 | 0.00 | 0.00 | 86 | 1018.2 | |
| 20260505020016 | 47 | 0.0 | 0.9 | 0.00 | 0.00 | 0.00 | 86 | 1018.1 | |
| 20260505015016 | 47 | 0.0 | 2.6 | 0.00 | 0.00 | 0.00 | 88 | 1018.2 | |
| 20260505014016 | 47 | 0.0 | 1.7 | 0.00 | 0.00 | 0.00 | 89 | 1018.1 | |
| 20260505013016 | 47 | 203 | 0.9 | 2.6 | 0.00 | 0.00 | 0.00 | 90 | 1018.2 |
| 20260505012017 | 47 | 225 | 1.7 | 4.3 | 0.00 | 0.00 | 0.00 | 89 | 1018.2 |
| 20260505011015 | 48 | 225 | 2.6 | 5.2 | 0.00 | 0.00 | 0.00 | 89 | 1018.1 |
| 20260505010017 | 48 | 248 | 2.6 | 5.2 | 0.00 | 0.00 | 0.00 | 90 | 1018.2 |
| 20260505005016 | 48 | 270 | 0.9 | 4.3 | 0.00 | 0.00 | 0.00 | 91 | 1018.2 |
| 20260505004036 | 48 | 0.0 | 1.7 | 0.00 | 0.00 | 0.00 | 92 | 1018.2 | |
| 20260505003017 | 48 | 248 | 1.7 | 2.6 | 0.00 | 0.00 | 0.00 | 93 | 1018.2 |
| 20260505002037 | 49 | 225 | 0.9 | 2.6 | 0.00 | 0.00 | 0.00 | 93 | 1018.2 |
| 20260505001036 | 50 | 225 | 1.7 | 4.3 | 0.00 | 0.00 | 0.00 | 91 | 1018.3 |
| 20260505000016 | 50 | 315 | 1.7 | 4.3 | 0.00 | 0.00 | 0.00 | 91 | 1018.2 |
| 20260504235015 | 50 | 0.0 | 1.7 | 0.00 | 0.00 | 0.00 | 93 | 1018.4 | |
| 20260504234015 | 50 | 0.0 | 0.9 | 0.00 | 0.00 | 0.00 | 93 | 1018.3 | |
| 20260504233016 | 51 | 0.0 | 1.7 | 0.00 | 0.00 | 0.00 | 92 | 1018.3 | |
| 20260504232015 | 51 | 0.0 | 1.7 | 0.00 | 0.00 | 0.00 | 92 | 1018.2 | |
| 20260504231015 | 52 | 225 | 1.7 | 6.1 | 0.00 | 0.00 | 0.00 | 92 | 1018.2 |
| 20260504230015 | 52 | 225 | 4.3 | 7.8 | 0.00 | 0.00 | 0.00 | 92 | 1018.2 |
| 20260504225017 | 52 | 225 | 3.5 | 7.8 | 0.00 | 0.00 | 0.00 | 92 | 1018.1 |
| 20260504224021 | 52 | 225 | 2.6 | 6.1 | 0.00 | 0.00 | 0.00 | 92 | 1018.2 |
| 20260504223016 | 52 | 203 | 2.6 | 5.2 | 0.00 | 0.00 | 0.00 | 92 | 1018.3 |
| 20260504222016 | 52 | 203 | 2.6 | 5.2 | 0.00 | 0.00 | 0.00 | 92 | 1018.4 |
| 20260504221016 | 53 | 203 | 2.6 | 6.1 | 0.00 | 0.00 | 0.00 | 91 | 1018.4 |
| 20260504220016 | 53 | 203 | 2.6 | 5.2 | 0.00 | 0.00 | 0.00 | 91 | 1018.3 |
| 20260504215036 | 53 | 203 | 1.7 | 5.2 | 0.00 | 0.00 | 0.00 | 91 | 1018.3 |
| 20260504214016 | 53 | 203 | 1.7 | 5.2 | 0.00 | 0.00 | 0.00 | 91 | 1018.4 |
| 20260504213016 | 53 | 203 | 1.7 | 6.1 | 0.00 | 0.00 | 0.00 | 90 | 1018.4 |
| 20260504212016 | 53 | 203 | 0.9 | 3.5 | 0.00 | 0.00 | 0.00 | 90 | 1018.4 |
| 20260504211017 | 53 | 0.0 | 0.0 | 0.00 | 0.00 | 0.00 | 91 | 1018.3 | |
| 20260504210016 | 54 | 0.0 | 0.0 | 0.00 | 0.00 | 0.00 | 91 | 1018.4 | |
| 20260504205036 | 54 | 0.0 | 0.9 | 0.00 | 0.00 | 0.00 | 90 | 1018.3 | |
| 20260504204037 | 54 | 0.0 | 1.7 | 0.00 | 0.00 | 0.00 | 90 | 1018.2 | |
| 20260504203016 | 54 | 225 | 0.9 | 2.6 | 0.00 | 0.00 | 0.00 | 89 | 1018.2 |
| 20260504202039 | 54 | 0.0 | 0.9 | 0.00 | 0.00 | 0.00 | 89 | 1018.0 | |
| 20260504201015 | 55 | 0.0 | 0.9 | 0.00 | 0.00 | 0.00 | 88 | 1018.0 | |
| 20260504200016 | 55 | 225 | 0.9 | 3.5 | 0.00 | 0.00 | 0.00 | 87 | 1018.0 |
| 20260504195016 | 55 | 225 | 2.6 | 4.3 | 0.00 | 0.00 | 0.00 | 88 | 1017.9 |
| 20260504194016 | 55 | 225 | 1.7 | 5.2 | 0.00 | 0.00 | 0.00 | 87 | 1017.9 |
| 20260504193016 | 55 | 225 | 1.7 | 4.3 | 0.00 | 0.00 | 0.00 | 88 | 1017.8 |
| 20260504192016 | 55 | 203 | 0.9 | 3.5 | 0.00 | 0.00 | 0.00 | 89 | 1017.7 |
| 20260504191015 | 55 | 0.0 | 1.7 | 0.00 | 0.00 | 0.00 | 90 | 1017.7 | |
| 20260504190017 | 56 | 0.0 | 0.0 | 0.00 | 0.00 | 0.00 | 90 | 1017.6 | |
| 20260504185016 | 55 | 0.0 | 0.0 | 0.00 | 0.00 | 0.00 | 91 | 1017.6 | |
| 20260504184040 | 55 | 0.0 | 0.0 | 0.00 | 0.00 | 0.00 | 92 | 1017.6 | |
| 20260504183016 | 54 | 0.0 | 0.0 | 0.00 | 0.00 | 0.00 | 91 | 1017.7 | |
| 20260504182017 | 54 | 0.0 | 0.9 | 0.00 | 0.00 | 0.00 | 91 | 1017.6 | |
| 20260504181037 | 54 | 0.0 | 0.9 | 0.00 | 0.00 | 0.00 | 91 | 1017.6 | |
| 20260504180016 | 54 | 0.0 | 1.7 | 0.00 | 0.00 | 0.00 | 91 | 1017.5 | |
| 20260504175015 | 54 | 338 | 0.9 | 1.7 | 0.00 | 0.00 | 0.00 | 91 | 1017.5 |
| 20260504174017 | 54 | 338 | 0.9 | 4.3 | 0.00 | 0.00 | 0.00 | 91 | 1017.5 |
| 20260504173018 | 54 | 315 | 2.6 | 5.2 | 0.00 | 0.00 | 0.00 | 91 | 1017.6 |
| 20260504172117 | 55 | 315 | 2.6 | 6.1 | 0.00 | 0.01 | 0.00 | 90 | 1017.6 |
| 20260504171017 | 55 | 293 | 2.6 | 5.2 | 0.00 | 0.01 | 0.00 | 89 | 1017.5 |
| 20260504151017 | 57 | 315 | 0.9 | 4.3 | 0.00 | 0.01 | 0.00 | 84 | 1017.3 |
| 20260504141021 | 58 | 315 | 2.6 | 5.2 | 0.00 | 0.01 | 0.00 | 81 | 1017.4 |